Time;durP1;ratioP1;P1;durP2;ratioP2;P2;SDS_P1;SDS_P2;PMS_P1;PMS_P2;Temp;Humidity;BMP_temperature;BMP_pressure;BME280_temperature;BME280_humidity;BME280_pressure;Samples;Min_cycle;Max_cycle;Signal;HPM_P1;HPM_P2
2022/09/05 00:00:00;;;;;;;19.73;13.68;;;15.00;99.90;;;;;;5011170;28;20029;-56
2022/09/05 00:02:38;;;;;;;19.75;13.70;;;14.90;99.90;;;;;;5011691;28;20040;-55
2022/09/05 00:05:03;;;;;;;;;;;14.90;99.90;;;;;;5011871;28;20033;-55
2022/09/05 00:07:51;;;;;;;18.35;13.40;;;14.90;99.90;;;;;;5011365;28;19911;-55
2022/09/05 00:10:59;;;;;;;16.73;13.00;;;14.90;99.90;;;;;;5010980;28;20198;-55
2022/09/05 00:13:29;;;;;;;18.75;13.77;;;14.90;99.90;;;;;;5010959;28;20494;-55
2022/09/05 00:16:34;;;;;;;22.00;13.82;;;14.90;99.90;;;;;;5011389;28;20026;-55
2022/09/05 00:19:21;;;;;;;19.65;13.65;;;14.90;99.90;;;;;;4995477;28;20041;-56
2022/09/05 00:22:08;;;;;;;20.02;13.35;;;14.90;99.90;;;;;;4992347;28;20041;-56
2022/09/05 00:24:46;;;;;;;19.95;12.50;;;14.90;99.90;;;;;;4993370;28;20042;-55
2022/09/05 00:27:39;;;;;;;20.73;13.32;;;15.00;99.90;;;;;;5010825;28;20370;-56
2022/09/05 00:30:13;;;;;;;17.13;12.75;;;14.90;99.90;;;;;;4979855;28;20034;-55
2022/09/05 00:32:49;;;;;;;18.95;13.77;;;15.00;99.90;;;;;;5011160;28;20033;-56
2022/09/05 00:35:38;;;;;;;19.55;13.35;;;15.00;99.90;;;;;;5010879;28;20112;-54
2022/09/05 00:38:16;;;;;;;22.20;13.25;;;14.90;99.90;;;;;;5010596;28;20089;-55
2022/09/05 00:40:55;;;;;;;;;;;15.00;99.90;;;;;;5011509;28;20210;-55
2022/09/05 00:43:30;;;;;;;17.37;12.60;;;15.00;99.90;;;;;;5010740;28;19992;-55
2022/09/05 00:46:09;;;;;;;20.77;13.25;;;15.00;99.90;;;;;;5010948;28;20041;-56
2022/09/05 00:48:43;;;;;;;18.25;13.32;;;14.90;99.90;;;;;;5010672;28;20030;-56
2022/09/05 00:51:30;;;;;;;22.15;12.95;;;14.90;99.90;;;;;;5010444;28;20034;-55
2022/09/05 00:54:17;;;;;;;19.17;12.88;;;14.90;99.90;;;;;;5010781;28;20030;-55
2022/09/05 00:57:01;;;;;;;17.98;11.98;;;14.90;99.90;;;;;;5010300;28;20108;-56
2022/09/05 00:59:49;;;;;;;15.13;11.52;;;14.90;99.90;;;;;;5010572;28;20033;-56
2022/09/05 01:02:24;;;;;;;21.60;11.90;;;14.90;99.90;;;;;;5010819;28;20037;-55
2022/09/05 01:05:09;;;;;;;16.48;12.05;;;14.90;99.90;;;;;;5010280;28;20018;-56
2022/09/05 01:08:02;;;;;;;19.08;12.68;;;14.90;99.90;;;;;;4991187;28;20355;-55
2022/09/05 01:10:57;;;;;;;17.40;11.98;;;14.90;99.90;;;;;;5010131;28;20034;-55
2022/09/05 01:13:35;;;;;;;15.63;10.77;;;14.90;99.90;;;;;;5010175;28;20026;-55
2022/09/05 01:16:39;;;;;;;17.65;12.05;;;14.90;99.90;;;;;;5010278;28;20036;-55
2022/09/05 01:19:26;;;;;;;19.88;11.20;;;14.80;99.90;;;;;;5010125;28;20033;-55
2022/09/05 01:22:17;;;;;;;17.70;11.35;;;14.80;99.90;;;;;;5009889;28;20033;-55
2022/09/05 01:25:10;;;;;;;16.60;11.20;;;14.80;99.90;;;;;;5009975;28;20561;-55
2022/09/05 01:28:09;;;;;;;16.40;11.35;;;14.80;99.90;;;;;;5009867;28;20030;-56
2022/09/05 01:30:42;;;;;;;16.27;11.52;;;14.80;99.90;;;;;;5010138;28;20029;-55
2022/09/05 01:33:21;;;;;;;13.90;10.65;;;14.80;99.90;;;;;;5009622;28;20061;-55
2022/09/05 01:35:53;;;;;;;17.92;10.85;;;14.80;99.90;;;;;;5009846;28;20097;-55
2022/09/05 01:38:25;;;;;;;17.13;11.25;;;14.80;99.90;;;;;;5009680;28;20218;-55
2022/09/05 01:41:11;;;;;;;18.60;10.40;;;14.70;99.90;;;;;;4992020;28;20040;-55
2022/09/05 01:44:08;;;;;;;17.13;10.32;;;14.70;99.90;;;;;;5002420;28;20064;-55
2022/09/05 01:46:41;;;;;;;17.10;9.80;;;14.60;99.90;;;;;;5009634;28;20113;-55
2022/09/05 01:49:28;;;;;;;13.95;9.82;;;14.60;99.90;;;;;;5009870;28;20091;-54
2022/09/05 01:52:12;;;;;;;15.88;10.55;;;14.50;99.90;;;;;;5009696;28;20478;-55
2022/09/05 01:55:05;;;;;;;14.38;10.20;;;14.50;99.90;;;;;;5009783;28;20045;-55
2022/09/05 01:57:52;;;;;;;14.88;10.02;;;14.50;99.90;;;;;;5009556;28;20026;-56
2022/09/05 02:00:59;;;;;;;14.70;10.50;;;14.40;99.90;;;;;;4991653;28;20768;-55
2022/09/05 02:03:50;;;;;;;14.65;10.40;;;14.40;99.90;;;;;;5002469;28;20401;-55
2022/09/05 02:06:33;;;;;;;14.98;9.63;;;14.30;99.90;;;;;;5009685;28;20018;-55
2022/09/05 02:09:12;;;;;;;15.68;10.35;;;14.30;99.90;;;;;;5009599;28;20053;-56
2022/09/05 02:11:44;;;;;;;16.58;9.07;;;14.20;99.90;;;;;;5009445;28;20085;-55
2022/09/05 02:14:38;;;;;;;14.85;9.73;;;14.20;99.90;;;;;;5009762;28;20127;-55
2022/09/05 02:17:15;;;;;;;18.20;9.05;;;14.10;99.90;;;;;;5009450;28;20069;-55
2022/09/05 02:20:05;;;;;;;15.60;9.43;;;14.10;99.90;;;;;;5009207;28;20029;-55
2022/09/05 02:22:43;;;;;;;14.38;9.32;;;14.00;99.90;;;;;;4988487;28;20042;-55
2022/09/05 02:25:16;;;;;;;13.98;9.23;;;14.00;99.90;;;;;;5009965;28;20057;-55
2022/09/05 02:28:14;;;;;;;20.08;11.10;;;13.90;99.90;;;;;;5009541;28;20533;-55
2022/09/05 02:30:55;;;;;;;17.00;10.52;;;13.90;99.90;;;;;;5008592;28;20037;-55
2022/09/05 02:33:31;;;;;;;18.60;10.23;;;13.80;99.90;;;;;;5009348;28;20030;-54
2022/09/05 02:36:21;;;;;;;17.83;11.45;;;13.80;99.90;;;;;;5009394;28;20044;-56
2022/09/05 02:39:14;;;;;;;15.90;10.77;;;13.70;99.90;;;;;;5008901;28;20052;-55
2022/09/05 02:41:53;;;;;;;15.98;10.15;;;13.70;99.90;;;;;;4991524;28;20497;-55
2022/09/05 02:44:36;;;;;;;16.52;10.45;;;13.60;99.90;;;;;;5009252;28;20114;-56
2022/09/05 02:47:21;;;;;;;14.88;9.45;;;13.50;99.90;;;;;;5012559;28;20049;-55
2022/09/05 02:50:05;;;;;;;20.85;10.73;;;13.50;99.90;;;;;;5012583;28;20018;-55
2022/09/05 02:52:34;;;;;;;18.83;12.00;;;13.50;99.90;;;;;;5012721;28;20030;-55
2022/09/05 02:55:14;;;;;;;14.05;10.57;;;13.40;99.90;;;;;;5012565;28;20029;-55
2022/09/05 02:57:49;;;;;;;14.75;9.55;;;13.20;99.90;;;;;;5012464;28;20026;-55
2022/09/05 03:00:20;;;;;;;18.02;11.50;;;13.20;99.90;;;;;;5012358;28;20780;-55
2022/09/05 03:02:55;;;;;;;17.75;9.88;;;13.30;99.90;;;;;;5012845;28;20030;-55
2022/09/05 03:05:31;;;;;;;14.00;9.52;;;13.20;99.90;;;;;;5012623;28;20022;-55
2022/09/05 03:08:32;;;;;;;17.67;10.20;;;13.20;99.90;;;;;;5012381;28;20453;-55
2022/09/05 03:11:13;;;;;;;17.30;9.48;;;13.20;99.90;;;;;;5012119;28;20060;-55
2022/09/05 03:14:01;;;;;;;14.77;10.13;;;13.10;99.90;;;;;;5012214;28;20088;-55
2022/09/05 03:16:44;;;;;;;15.07;9.18;;;13.10;99.90;;;;;;5012361;28;20620;-55
2022/09/05 03:19:25;;;;;;;14.02;10.10;;;13.10;99.90;;;;;;5012420;28;20030;-55
2022/09/05 03:22:26;;;;;;;15.82;9.68;;;13.00;99.90;;;;;;5011981;28;20793;-56
2022/09/05 03:24:54;;;;;;;14.60;10.55;;;13.00;99.90;;;;;;5011922;28;20513;-55
2022/09/05 03:27:44;;;;;;;13.80;9.73;;;12.90;99.90;;;;;;5011960;28;20053;-55
2022/09/05 03:30:14;;;;;;;12.98;9.35;;;12.90;99.90;;;;;;5011966;28;20026;-55
2022/09/05 03:33:03;;;;;;;16.27;9.27;;;12.90;99.90;;;;;;5011870;28;20022;-55
2022/09/05 03:35:47;;;;;;;;;;;12.80;99.90;;;;;;5006487;28;20493;-55
2022/09/05 03:38:32;;;;;;;14.18;9.27;;;12.80;99.90;;;;;;5011660;28;19905;-55
2022/09/05 03:41:24;;;;;;;13.27;9.23;;;12.70;99.90;;;;;;5011738;28;20087;-56
2022/09/05 03:44:10;;;;;;;15.00;9.50;;;12.60;99.90;;;;;;4990482;28;20033;-55
2022/09/05 03:46:50;;;;;;;12.80;8.98;;;12.70;99.90;;;;;;5011922;28;20026;-55
2022/09/05 03:49:19;;;;;;;14.43;9.65;;;12.60;99.90;;;;;;5011659;28;20022;-55
2022/09/05 03:52:18;;;;;;;13.23;9.35;;;12.60;99.90;;;;;;5011604;28;20105;-55
2022/09/05 03:55:12;;;;;;;12.30;7.82;;;12.60;99.90;;;;;;4995309;28;20125;-56
2022/09/05 03:57:52;;;;;;;14.55;8.63;;;12.50;99.90;;;;;;5011249;28;20026;-54
2022/09/05 04:00:24;;;;;;;14.52;9.07;;;12.40;99.90;;;;;;5011107;28;20389;-55
2022/09/05 04:03:02;;;;;;;14.48;8.98;;;12.50;99.90;;;;;;5011328;28;20022;-55
2022/09/05 04:05:37;;;;;;;17.15;9.68;;;12.40;99.90;;;;;;5011394;28;20124;-55
2022/09/05 04:08:46;;;;;;;21.75;9.13;;;12.40;99.90;;;;;;5011213;28;20018;-55
2022/09/05 04:11:17;;;;;;;13.57;8.83;;;12.30;99.90;;;;;;4978478;28;20042;-54
2022/09/05 04:14:08;;;;;;;15.38;9.75;;;12.20;99.90;;;;;;5011403;28;20374;-53
2022/09/05 04:16:59;;;;;;;15.60;10.48;;;12.20;99.90;;;;;;5005403;28;20445;-55
2022/09/05 04:19:43;;;;;;;15.05;10.60;;;12.10;99.90;;;;;;5010960;28;20022;-54
2022/09/05 04:22:15;;;;;;;15.43;10.15;;;12.20;99.90;;;;;;5011030;28;20030;-54
2022/09/05 04:24:56;;;;;;;14.48;10.90;;;12.10;99.90;;;;;;5010973;28;20022;-55
2022/09/05 04:27:47;;;;;;;15.45;11.25;;;12.10;99.90;;;;;;5011057;28;20044;-55
2022/09/05 04:30:38;;;;;;;15.68;10.43;;;12.10;99.90;;;;;;5010631;28;20026;-55
2022/09/05 04:33:12;;;;;;;15.10;10.50;;;12.10;99.90;;;;;;5010685;28;20030;-55
2022/09/05 04:36:11;;;;;;;16.27;10.98;;;12.20;99.90;;;;;;5010966;28;20835;-55
2022/09/05 04:38:40;;;;;;;16.33;11.35;;;12.20;99.90;;;;;;5010723;28;20074;-55
2022/09/05 04:41:27;;;;;;;14.57;10.13;;;12.10;99.90;;;;;;5010523;28;20445;-55
2022/09/05 04:44:01;;;;;;;17.70;10.10;;;12.10;99.90;;;;;;5010377;28;20038;-55
2022/09/05 04:46:42;;;;;;;11.40;8.32;;;12.10;99.90;;;;;;5010606;28;20041;-55
2022/09/05 04:49:19;;;;;;;13.80;8.52;;;12.10;99.90;;;;;;5010789;28;20030;-55
2022/09/05 04:52:03;;;;;;;14.00;9.70;;;12.10;99.90;;;;;;5010292;28;20025;-55
2022/09/05 04:54:47;;;;;;;12.27;9.00;;;12.20;99.90;;;;;;5010589;28;20041;-54
2022/09/05 04:57:47;;;;;;;14.85;10.82;;;12.20;99.90;;;;;;4992642;28;20041;-55
2022/09/05 05:00:14;;;;;;;19.88;11.18;;;12.20;99.90;;;;;;5009883;28;20112;-55
2022/09/05 05:02:50;;;;;;;17.58;12.88;;;12.30;99.90;;;;;;5010374;28;20089;-55
2022/09/05 05:05:22;;;;;;;22.60;12.60;;;12.30;99.90;;;;;;5010681;28;20038;-54
2022/09/05 05:08:23;;;;;;;18.13;12.48;;;12.40;99.90;;;;;;5010005;28;20041;-55
2022/09/05 05:11:00;;;;;;;17.48;11.98;;;12.50;99.90;;;;;;4987214;28;20042;-55
2022/09/05 05:13:28;;;;;;;14.82;11.80;;;12.50;99.90;;;;;;5010238;28;20067;-55
2022/09/05 05:15:53;;;;;;;17.58;12.85;;;12.60;99.90;;;;;;5010125;28;20026;-55
2022/09/05 05:18:58;;;;;;;18.92;11.98;;;12.60;99.90;;;;;;5010131;28;20025;-54
2022/09/05 05:21:30;;;;;;;19.27;11.77;;;12.70;99.90;;;;;;5008647;28;20100;-55
2022/09/05 05:24:21;;;;;;;18.52;12.60;;;12.70;99.90;;;;;;5010097;28;20022;-55
2022/09/05 05:26:56;;;;;;;19.20;12.77;;;12.80;99.90;;;;;;5005025;28;20045;-55
2022/09/05 05:29:43;;;;;;;18.27;12.95;;;12.70;99.90;;;;;;5009751;28;20097;-55
2022/09/05 05:32:18;;;;;;;23.50;12.75;;;12.70;99.90;;;;;;5009946;28;20026;-55
2022/09/05 05:34:50;;;;;;;21.98;12.50;;;12.80;99.90;;;;;;5009972;28;20489;-55
2022/09/05 05:37:33;;;;;;;19.45;11.52;;;12.90;99.90;;;;;;5009932;28;20068;-54
2022/09/05 05:40:09;;;;;;;16.08;12.45;;;12.90;99.90;;;;;;5009426;28;20070;-55
2022/09/05 05:42:40;;;;;;;17.95;11.98;;;12.90;99.90;;;;;;5009799;28;20076;-54
2022/09/05 05:45:26;;;;;;;18.38;13.05;;;13.00;99.90;;;;;;5009715;28;20029;-55
2022/09/05 05:47:57;;;;;;;21.90;12.93;;;13.00;99.90;;;;;;5008666;28;20030;-54
2022/09/05 05:50:35;;;;;;;18.52;13.05;;;13.10;99.90;;;;;;5009769;28;20476;-55
2022/09/05 05:53:10;;;;;;;22.55;13.88;;;13.20;99.90;;;;;;5009922;28;20037;-55
2022/09/05 05:55:50;;;;;;;19.88;13.50;;;13.20;99.90;;;;;;5009701;28;20030;-55
2022/09/05 05:58:35;;;;;;;21.75;14.77;;;13.30;99.90;;;;;;5009369;28;20116;-55
2022/09/05 06:01:15;;;;;;;21.27;14.43;;;13.40;99.90;;;;;;5009804;28;20077;-55
2022/09/05 06:04:14;;;;;;;20.30;13.48;;;13.60;99.90;;;;;;5009931;28;20018;-55
2022/09/05 06:06:45;;;;;;;21.13;14.55;;;13.70;99.90;;;;;;5008939;28;20097;-55
2022/09/05 06:09:45;;;;;;;19.00;14.18;;;13.80;99.90;;;;;;5008404;28;20026;-55
2022/09/05 06:12:32;;;;;;;21.58;15.15;;;13.80;99.90;;;;;;5007087;28;20440;-55
2022/09/05 06:15:25;;;;;;;18.27;12.43;;;13.90;99.90;;;;;;5008201;28;20047;-54
2022/09/05 06:18:13;;;;;;;16.70;12.00;;;14.00;99.90;;;;;;4988611;28;20474;-55
2022/09/05 06:21:03;;;;;;;16.70;12.63;;;14.10;99.90;;;;;;5009554;28;20036;-54
2022/09/05 06:23:38;;;;;;;14.48;10.35;;;14.20;99.90;;;;;;4992545;28;20272;-54
2022/09/05 06:26:31;;;;;;;20.08;11.30;;;14.30;99.90;;;;;;5010428;28;20041;-55
2022/09/05 06:29:29;;;;;;;16.52;10.43;;;14.30;99.90;;;;;;5009282;28;20029;-55
2022/09/05 06:32:20;;;;;;;15.20;10.87;;;14.50;99.90;;;;;;5011938;28;20026;-55
2022/09/05 06:35:07;;;;;;;16.17;10.20;;;14.60;99.90;;;;;;5010745;28;20385;-55
2022/09/05 06:38:00;;;;;;;15.48;10.00;;;14.70;99.90;;;;;;5011535;28;20088;-55
2022/09/05 06:40:52;;;;;;;16.00;10.70;;;14.80;99.90;;;;;;5010004;28;20121;-55
2022/09/05 06:43:44;;;;;;;14.35;9.38;;;14.90;99.90;;;;;;5013013;28;20038;-55
2022/09/05 06:46:35;;;;;;;13.05;8.43;;;15.10;99.90;;;;;;5010627;28;20529;-55
2022/09/05 06:49:16;;;;;;;14.25;8.65;;;15.20;99.90;;;;;;5012413;28;20072;-55
2022/09/05 06:51:47;;;;;;;11.43;7.78;;;15.30;99.90;;;;;;5009246;28;20026;-55
2022/09/05 06:54:43;;;;;;;12.50;7.85;;;15.40;99.90;;;;;;5011411;28;20038;-54
2022/09/05 06:57:36;;;;;;;13.07;7.38;;;15.60;99.90;;;;;;5010819;28;20037;-54
2022/09/05 07:00:51;;;;;;;11.93;6.63;;;15.80;99.90;;;;;;5012203;28;20022;-54
2022/09/05 07:03:23;;;;;;;9.90;6.32;;;16.00;99.90;;;;;;4999317;28;20044;-55
2022/09/05 07:06:09;;;;;;;9.95;6.10;;;16.10;99.90;;;;;;5012522;28;20026;-55
2022/09/05 07:08:44;;;;;;;11.13;6.22;;;16.20;99.90;;;;;;5012497;28;20501;-55
2022/09/05 07:11:19;;;;;;;11.23;6.22;;;16.40;99.90;;;;;;5012468;28;20089;-55
2022/09/05 07:13:51;;;;;;;9.88;5.47;;;16.60;99.90;;;;;;5012296;28;20030;-55
2022/09/05 07:16:42;;;;;;;10.52;5.82;;;16.70;99.90;;;;;;5012556;28;20103;-55
2022/09/05 07:19:28;;;;;;;7.65;5.03;;;16.70;99.90;;;;;;4982509;28;20042;-55
2022/09/05 07:22:15;;;;;;;9.95;5.15;;;16.80;99.90;;;;;;5006050;28;20030;-55
2022/09/05 07:24:45;;;;;;;10.23;5.38;;;16.90;99.90;;;;;;5009830;28;20022;-55
2022/09/05 07:27:47;;;;;;;8.45;5.20;;;16.90;99.90;;;;;;5011891;28;20026;-55
2022/09/05 07:30:16;;;;;;;7.35;4.97;;;17.00;99.90;;;;;;4999346;28;20033;-54
2022/09/05 07:32:45;;;;;;;13.30;4.85;;;17.20;99.90;;;;;;5008564;28;20108;-55
2022/09/05 07:35:28;;;;;;;7.57;4.40;;;17.40;99.90;;;;;;5010621;28;20092;-54
2022/09/05 07:38:16;;;;;;;5.38;3.85;;;17.30;99.90;;;;;;5009329;28;20469;-55
2022/09/05 07:41:00;;;;;;;7.68;3.75;;;17.30;99.90;;;;;;5009443;28;20030;-55
2022/09/05 07:43:34;;;;;;;6.90;4.00;;;17.40;99.90;;;;;;5009926;28;20036;-55
2022/09/05 07:46:02;;;;;;;6.35;3.75;;;17.40;99.90;;;;;;5010232;28;20033;-54
2022/09/05 07:48:32;;;;;;;6.82;4.03;;;17.60;99.90;;;;;;5010500;28;20018;-55
2022/09/05 07:51:01;;;;;;;10.77;3.80;;;17.80;99.90;;;;;;5010358;28;20030;-54
2022/09/05 07:53:28;;;;;;;7.82;3.67;;;17.90;99.90;;;;;;5011571;28;20034;-55
2022/09/05 07:55:59;;;;;;;8.23;4.00;;;18.00;99.90;;;;;;5011591;28;20049;-54
2022/09/05 07:58:40;;;;;;;6.80;3.67;;;18.10;99.90;;;;;;5010516;28;20126;-53
2022/09/05 08:01:08;;;;;;;7.97;3.50;;;18.10;99.90;;;;;;5009754;28;20026;-54
2022/09/05 08:03:34;;;;;;;6.57;3.78;;;18.20;99.90;;;;;;5011283;28;20084;-54
2022/09/05 08:06:05;;;;;;;6.97;4.00;;;18.30;99.90;;;;;;5011420;28;20029;-54
2022/09/05 08:09:12;;;;;;;4.72;2.83;;;18.60;99.90;;;;;;5011390;28;20036;-54
2022/09/05 08:11:39;;;;;;;8.02;4.10;;;18.70;99.90;;;;;;5001317;28;20164;-53
2022/09/05 08:14:15;;;;;;;6.15;4.15;;;18.80;99.90;;;;;;5010691;28;20048;-54
2022/09/05 08:16:41;;;;;;;6.15;3.47;;;19.00;99.90;;;;;;5010367;28;20025;-53
2022/09/05 08:19:40;;;;;;;6.35;3.80;;;19.10;99.90;;;;;;5010183;28;20034;-54
2022/09/05 08:22:12;;;;;;;6.25;3.90;;;19.20;99.90;;;;;;5010740;28;20034;-54
2022/09/05 08:24:53;;;;;;;8.75;3.70;;;19.20;99.90;;;;;;4991259;28;20070;-54
2022/09/05 08:27:25;;;;;;;177.40;134.50;;;19.30;99.90;;;;;;5000164;28;20080;-53
2022/09/05 08:30:09;;;;;;;17.50;13.10;;;19.40;99.90;;;;;;5009624;28;20093;-53
2022/09/05 08:32:43;;;;;;;6.53;4.70;;;19.70;99.90;;;;;;5009642;28;20425;-54
2022/09/05 08:35:29;;;;;;;6.13;3.95;;;19.80;99.90;;;;;;5010457;28;20571;-53
2022/09/05 08:37:56;;;;;;;8.65;4.40;;;19.90;99.90;;;;;;5007757;28;20393;-54
2022/09/05 08:40:37;;;;;;;6.15;4.55;;;20.10;99.90;;;;;;5010306;28;20050;-53
2022/09/05 08:43:33;;;;;;;5.63;3.95;;;20.30;99.90;;;;;;5009826;28;20119;-54
2022/09/05 08:46:01;;;;;;;7.75;4.07;;;20.30;99.90;;;;;;5009183;28;20034;-54
2022/09/05 08:48:36;;;;;;;7.18;4.75;;;20.30;99.90;;;;;;4991483;28;20033;-54
2022/09/05 08:51:54;;;;;;;6.63;4.43;;;20.50;99.90;;;;;;5006716;28;20026;-53
2022/09/05 08:55:09;;;;;;;6.97;4.43;;;20.90;99.90;;;;;;4976186;28;20042;-54
2022/09/05 08:58:05;;;;;;;9.68;3.78;;;21.20;99.90;;;;;;5003142;28;20521;-55
2022/09/05 09:00:54;;;;;;;7.00;4.10;;;21.40;99.90;;;;;;4990440;28;20462;-55
2022/09/05 09:03:48;;;;;;;7.68;4.57;;;21.80;99.90;;;;;;5007184;28;20036;-54
2022/09/05 09:06:19;;;;;;;6.22;3.88;;;22.60;99.90;;;;;;5008794;28;20057;-53
2022/09/05 09:09:07;;;;;;;6.25;3.88;;;23.00;99.90;;;;;;5006891;28;20023;-54
2022/09/05 09:12:05;;;;;;;5.43;4.13;;;24.10;97.20;;;;;;5007981;28;20022;-54
2022/09/05 09:14:36;;;;;;;9.32;4.22;;;23.50;98.10;;;;;;5007482;28;20410;-54
2022/09/05 09:17:26;;;;;;;6.00;3.72;;;23.40;97.20;;;;;;5005953;28;20053;-55
2022/09/05 09:20:16;;;;;;;8.40;4.38;;;23.80;94.20;;;;;;5007274;28;20339;-54
2022/09/05 09:23:21;;;;;;;8.25;3.50;;;24.00;96.40;;;;;;5008696;28;20114;-54
2022/09/05 09:25:59;;;;;;;7.40;3.53;;;24.80;92.70;;;;;;5005832;28;20405;-55
2022/09/05 09:29:07;;;;;;;12.02;3.67;;;23.70;95.00;;;;;;5008096;28;20432;-55
2022/09/05 09:31:48;;;;;;;8.43;3.85;;;23.60;96.40;;;;;;4990846;28;20038;-54
2022/09/05 09:34:37;;;;;;;8.23;4.13;;;23.40;96.30;;;;;;5006377;28;20125;-55
2022/09/05 09:37:03;;;;;;;6.30;3.53;;;23.50;96.90;;;;;;4986910;28;20094;-54
2022/09/05 09:39:47;;;;;;;4.60;3.00;;;23.40;94.40;;;;;;5008324;28;20472;-53
2022/09/05 09:42:22;;;;;;;5.13;3.22;;;23.70;91.50;;;;;;5008770;28;20026;-54
2022/09/05 09:45:06;;;;;;;7.40;3.80;;;24.20;91.00;;;;;;5008382;28;20066;-54
2022/09/05 09:48:14;;;;;;;7.78;3.35;;;23.80;92.40;;;;;;5006555;28;20037;-54
2022/09/05 09:51:05;;;;;;;6.78;3.10;;;24.10;91.50;;;;;;5006719;28;20549;-54
2022/09/05 09:53:58;;;;;;;5.78;3.83;;;24.30;92.40;;;;;;5006663;28;20042;-53
2022/09/05 09:56:36;;;;;;;6.07;3.33;;;24.70;90.30;;;;;;5009522;28;20022;-54
2022/09/05 09:59:37;;;;;;;7.63;3.45;;;25.80;88.90;;;;;;5009078;28;20026;-54
2022/09/05 10:02:14;;;;;;;7.50;3.47;;;25.90;80.90;;;;;;5009534;28;20034;-54
2022/09/05 10:05:01;;;;;;;6.43;3.63;;;25.20;84.30;;;;;;5011041;28;20026;-54
2022/09/05 10:07:51;;;;;;;6.47;4.00;;;25.00;85.30;;;;;;5011134;28;20037;-54
2022/09/05 10:10:17;;;;;;;6.70;3.53;;;24.40;85.10;;;;;;5009876;28;20030;-54
2022/09/05 10:12:54;;;;;;;9.90;4.13;;;24.80;91.40;;;;;;5011132;28;20056;-54
2022/09/05 10:15:27;;;;;;;4.07;3.17;;;25.20;83.60;;;;;;5010207;28;20042;-54
2022/09/05 10:18:17;;;;;;;6.22;3.80;;;25.00;82.80;;;;;;5008860;28;20491;-53
2022/09/05 10:20:57;;;;;;;5.60;3.53;;;25.20;88.90;;;;;;5010264;28;20034;-54
2022/09/05 10:23:40;;;;;;;6.15;3.28;;;25.30;88.90;;;;;;5009072;28;20026;-54
2022/09/05 10:26:11;;;;;;;7.93;3.40;;;25.30;89.10;;;;;;4991425;28;20029;-54
2022/09/05 10:28:57;;;;;;;4.82;3.47;;;26.30;84.00;;;;;;5011549;28;20029;-54
2022/09/05 10:31:50;;;;;;;7.47;4.00;;;25.40;86.90;;;;;;5012195;28;20029;-54
2022/09/05 10:34:46;;;;;;;7.05;3.45;;;25.70;86.30;;;;;;5009525;28;20061;-54
2022/09/05 10:37:13;;;;;;;10.68;4.13;;;25.30;81.80;;;;;;5011856;28;20121;-54
2022/09/05 10:39:47;;;;;;;9.63;4.00;;;24.30;85.20;;;;;;5011317;28;20608;-54
2022/09/05 10:42:17;;;;;;;8.80;4.05;;;23.70;88.70;;;;;;5011663;28;20063;-56
2022/09/05 10:44:54;;;;;;;6.10;3.75;;;23.40;90.10;;;;;;5011787;28;20025;-54
2022/09/05 10:47:48;;;;;;;8.32;3.67;;;23.10;90.40;;;;;;5011415;28;20033;-54
2022/09/05 10:50:32;;;;;;;6.03;3.40;;;23.00;91.70;;;;;;5009546;28;20478;-54
2022/09/05 10:53:13;;;;;;;10.50;3.38;;;22.60;90.20;;;;;;4986343;28;20072;-54
2022/09/05 10:56:02;;;;;;;4.80;3.78;;;22.40;90.50;;;;;;5012014;28;20044;-54
2022/09/05 10:59:00;;;;;;;9.52;3.45;;;22.10;90.80;;;;;;5009914;28;20026;-55
2022/09/05 11:01:36;;;;;;;8.90;4.65;;;22.10;93.40;;;;;;5009193;28;20018;-54
2022/09/05 11:04:29;;;;;;;7.20;3.30;;;23.00;92.60;;;;;;5008318;28;20061;-55
2022/09/05 11:07:01;;;;;;;8.48;3.72;;;23.60;88.50;;;;;;5009573;28;20022;-54
2022/09/05 11:09:39;;;;;;;5.72;3.50;;;24.00;90.00;;;;;;4991462;28;20093;-54
2022/09/05 11:12:26;;;;;;;6.63;3.58;;;25.00;80.90;;;;;;5008564;28;20646;-55
2022/09/05 11:14:58;;;;;;;8.68;4.30;;;25.50;80.70;;;;;;5009498;28;20069;-55
2022/09/05 11:18:14;;;;;;;7.22;3.55;;;25.20;82.00;;;;;;5008673;28;20053;-54
2022/09/05 11:20:40;;;;;;;4.47;2.90;;;25.30;78.50;;;;;;4969181;28;20029;-55
2022/09/05 11:23:21;;;;;;;5.50;3.38;;;24.70;80.10;;;;;;4969283;28;20027;-55
2022/09/05 11:26:03;;;;;;;6.82;4.00;;;24.20;82.50;;;;;;4996313;28;20053;-55
2022/09/05 11:28:46;;;;;;;6.60;3.35;;;24.00;83.00;;;;;;5009141;28;20064;-56
2022/09/05 11:31:17;;;;;;;6.47;3.95;;;23.80;85.90;;;;;;5003982;28;20023;-55
2022/09/05 11:34:02;;;;;;;6.07;3.75;;;23.60;84.40;;;;;;5016854;28;20025;-54
2022/09/05 11:36:32;;;;;;;7.28;3.55;;;23.50;86.30;;;;;;5013597;28;20473;-55
2022/09/05 11:39:07;;;;;;;8.18;3.28;;;23.40;86.80;;;;;;5011603;28;20141;-55
2022/09/05 11:41:54;;;;;;;9.18;3.33;;;23.60;89.10;;;;;;4994066;28;20437;-54
2022/09/05 11:44:35;;;;;;;8.57;2.72;;;23.90;86.00;;;;;;5005537;28;20038;-54
2022/09/05 11:47:28;;;;;;;9.32;4.28;;;24.20;87.30;;;;;;4996337;28;20130;-55
2022/09/05 11:50:09;;;;;;;6.18;2.80;;;24.60;83.70;;;;;;5011488;28;20032;-55
2022/09/05 11:52:58;;;;;;;9.48;3.13;;;24.70;75.50;;;;;;5011401;28;20101;-55
2022/09/05 11:56:22;;;;;;;7.63;3.72;;;24.60;78.10;;;;;;5011051;28;20160;-54
2022/09/05 11:59:15;;;;;;;8.00;2.95;;;25.10;84.20;;;;;;4968381;28;20730;-55
2022/09/05 12:02:13;;;;;;;3.70;2.88;;;25.50;79.30;;;;;;5009831;28;20018;-55
2022/09/05 12:04:56;;;;;;;12.02;3.00;;;25.50;73.20;;;;;;5009603;28;20112;-54
2022/09/05 12:08:12;;;;;;;5.18;3.22;;;25.60;71.00;;;;;;5010392;28;20036;-54
2022/09/05 12:11:06;;;;;;;5.50;2.88;;;25.60;72.00;;;;;;4944511;29;20034;-55
2022/09/05 12:14:26;;;;;;;5.10;3.20;;;25.80;73.00;;;;;;4941372;29;20082;-55
2022/09/05 12:17:04;;;;;;;9.50;3.33;;;26.00;73.10;;;;;;4958456;28;20504;-55
2022/09/05 12:19:42;;;;;;;8.68;2.50;;;26.40;74.90;;;;;;5010445;28;20445;-58
2022/09/05 12:22:07;;;;;;;;;;;26.40;72.40;;;;;;5009508;28;20442;-54
2022/09/05 12:25:14;;;;;;;9.70;2.67;;;26.80;73.30;;;;;;5010225;28;19920;-54
2022/09/05 12:27:46;;;;;;;8.35;3.35;;;26.90;72.60;;;;;;4976874;28;20034;-55
2022/09/05 12:30:21;;;;;;;6.65;2.65;;;26.90;66.20;;;;;;5010188;28;20129;-55
2022/09/05 12:32:51;;;;;;;6.63;3.75;;;27.20;68.70;;;;;;5010385;28;20021;-55
2022/09/05 12:35:30;;;;;;;3.22;2.55;;;27.20;67.00;;;;;;5007578;28;20041;-56
2022/09/05 12:38:08;;;;;;;5.03;2.90;;;27.40;68.90;;;;;;5008296;28;20140;-55
2022/09/05 12:40:41;;;;;;;6.57;3.17;;;27.50;63.10;;;;;;5007788;28;20493;-54
2022/09/05 12:43:10;;;;;;;5.50;3.25;;;27.30;67.60;;;;;;5007679;28;20021;-55
2022/09/05 12:45:55;;;;;;;6.63;2.92;;;27.30;71.10;;;;;;5009827;28;20033;-55
2022/09/05 12:48:54;;;;;;;3.58;2.80;;;27.00;64.10;;;;;;5009085;28;20025;-56
2022/09/05 12:51:22;;;;;;;7.43;2.70;;;26.60;63.40;;;;;;5008784;28;20026;-56
2022/09/05 12:53:56;;;;;;;7.10;2.88;;;26.50;65.10;;;;;;5008104;28;20038;-54
2022/09/05 12:56:46;;;;;;;4.55;2.63;;;26.90;69.10;;;;;;5010569;28;20022;-55
2022/09/05 12:59:17;;;;;;;7.10;2.92;;;27.10;65.20;;;;;;5009928;28;20393;-55
2022/09/05 13:01:44;;;;;;;5.00;2.75;;;26.60;64.80;;;;;;5007427;28;20029;-54
2022/09/05 13:04:23;;;;;;;6.95;2.88;;;26.10;64.40;;;;;;5009018;28;20493;-55
2022/09/05 13:07:28;;;;;;;9.07;2.85;;;25.90;67.60;;;;;;5007014;28;20034;-55
2022/09/05 13:10:02;;;;;;;8.23;3.10;;;25.50;68.50;;;;;;4958694;28;20109;-55
2022/09/05 13:12:36;;;;;;;5.72;3.03;;;25.20;69.10;;;;;;5001325;28;20473;-55
2022/09/05 13:15:07;;;;;;;10.23;2.85;;;25.00;70.00;;;;;;5007131;28;20441;-54
2022/09/05 13:17:43;;;;;;;4.90;3.10;;;24.60;71.20;;;;;;5008947;28;20388;-55
2022/09/05 13:20:31;;;;;;;7.47;2.85;;;24.60;74.50;;;;;;5008735;28;20026;-54
2022/09/05 13:23:19;;;;;;;6.18;2.97;;;24.20;72.80;;;;;;5008839;28;20477;-54
2022/09/05 13:26:02;;;;;;;3.95;2.45;;;24.20;76.20;;;;;;5006848;28;20396;-54
2022/09/05 13:29:00;;;;;;;6.68;2.90;;;24.30;75.30;;;;;;5007432;28;20038;-54
2022/09/05 13:31:40;;;;;;;7.07;2.63;;;24.70;75.50;;;;;;5007209;28;20067;-54
2022/09/05 13:34:15;;;;;;;5.50;2.88;;;25.20;71.90;;;;;;5007590;28;20113;-55
2022/09/05 13:36:50;;;;;;;5.97;2.63;;;25.20;67.10;;;;;;5009795;28;20029;-55
2022/09/05 13:39:19;;;;;;;10.48;3.80;;;25.40;74.00;;;;;;5009869;28;20054;-55
2022/09/05 13:42:03;;;;;;;6.57;2.67;;;25.50;69.50;;;;;;5009842;28;20044;-55
2022/09/05 13:44:36;;;;;;;4.05;2.80;;;25.70;68.70;;;;;;5008481;28;20026;-54
2022/09/05 13:47:25;;;;;;;6.75;3.20;;;25.90;67.50;;;;;;5005952;28;20030;-54
2022/09/05 13:50:16;;;;;;;5.57;2.63;;;26.20;69.50;;;;;;5008298;28;20022;-55
2022/09/05 13:53:03;;;;;;;9.43;2.67;;;26.30;66.30;;;;;;5007811;28;20181;-55
2022/09/05 13:55:41;;;;;;;7.20;2.65;;;26.20;65.20;;;;;;5007002;28;20038;-55
2022/09/05 13:58:38;;;;;;;5.90;2.70;;;26.40;65.70;;;;;;5008974;28;20030;-56